createdAt,value
2017-11-17T00:02:26.751Z,87.10
2017-11-17T00:04:54.411Z,79.50
2017-11-17T00:07:21.992Z,78.67
2017-11-17T00:09:49.582Z,78.30
2017-11-17T00:12:17.939Z,88.13
2017-11-17T00:14:45.554Z,85.80
2017-11-17T00:17:13.135Z,82.67
2017-11-17T00:19:40.724Z,76.20
2017-11-17T00:22:08.280Z,81.80
2017-11-17T00:24:35.883Z,78.80
2017-11-17T00:27:04.215Z,89.63
2017-11-17T00:29:31.829Z,91.07
2017-11-17T00:32:03.793Z,96.37
2017-11-17T00:34:32.739Z,85.60
2017-11-17T00:37:04.067Z,76.93
2017-11-17T00:39:32.726Z,88.33
2017-11-17T00:42:00.322Z,85.77
2017-11-17T00:44:34.046Z,79.63
2017-11-17T00:47:03.921Z,87.40
2017-11-17T00:49:36.987Z,96.33
2017-11-17T00:52:04.616Z,93.00
2017-11-17T00:54:34.527Z,88.83
2017-11-17T00:57:02.396Z,80.30
2017-11-17T00:59:30.360Z,88.37
2017-11-17T01:02:00.337Z,83.23
2017-11-17T01:04:33.543Z,84.93
2017-11-17T01:07:03.948Z,89.60
2017-11-17T01:09:33.743Z,95.33
2017-11-17T01:12:02.616Z,94.90
2017-11-17T01:14:30.232Z,94.30
2017-11-17T01:17:00.457Z,99.13
2017-11-17T01:19:30.917Z,102.03
2017-11-17T01:21:58.560Z,87.23
2017-11-17T01:24:26.681Z,95.27
2017-11-17T01:26:55.043Z,90.57
2017-11-17T01:29:22.606Z,86.67
2017-11-17T01:31:50.298Z,92.67
2017-11-17T01:34:17.878Z,96.40
2017-11-17T01:36:45.703Z,94.97
2017-11-17T01:39:14.040Z,97.83
2017-11-17T01:41:42.017Z,101.87
2017-11-17T01:44:09.587Z,89.70
2017-11-17T01:46:37.179Z,78.37
2017-11-17T01:49:05.803Z,82.17
2017-11-17T01:51:33.479Z,83.03
2017-11-17T01:54:01.045Z,73.07
2017-11-17T01:56:28.608Z,81.23
2017-11-17T01:58:56.171Z,76.97
2017-11-17T02:01:23.732Z,76.50
2017-11-17T02:03:51.324Z,87.63
2017-11-17T02:06:19.673Z,75.23
2017-11-17T02:08:47.241Z,76.57
2017-11-17T02:11:14.822Z,82.37
2017-11-17T02:13:43.442Z,78.23
2017-11-17T02:16:11.011Z,84.40
2017-11-17T02:18:38.578Z,83.27
2017-11-17T02:21:06.124Z,84.23
2017-11-17T02:23:33.684Z,70.10
2017-11-17T02:26:01.270Z,85.97
2017-11-17T02:28:28.808Z,82.23
2017-11-17T02:30:56.440Z,82.73
2017-11-17T02:33:24.768Z,83.20
2017-11-17T02:35:52.360Z,74.60
2017-11-17T02:38:19.934Z,76.20
2017-11-17T02:40:48.278Z,75.07
2017-11-17T02:43:15.835Z,77.33
2017-11-17T02:45:43.406Z,71.77
2017-11-17T02:48:10.974Z,67.47
2017-11-17T02:50:38.542Z,73.70
2017-11-17T02:53:06.111Z,66.93
2017-11-17T02:55:33.675Z,78.53
2017-11-17T02:58:02.010Z,76.77
2017-11-17T03:00:29.568Z,71.53
2017-11-17T03:02:57.166Z,71.43
2017-11-17T03:05:24.783Z,66.57
2017-11-17T03:07:53.142Z,66.53
2017-11-17T03:10:20.712Z,73.83
2017-11-17T03:12:48.283Z,65.27
2017-11-17T03:15:15.881Z,71.33
2017-11-17T03:17:43.449Z,72.00
2017-11-17T03:20:11.034Z,72.47
2017-11-17T03:22:40.240Z,68.73
2017-11-17T03:25:07.836Z,68.50
2017-11-17T03:27:35.415Z,69.20
2017-11-17T03:30:03.000Z,64.07
2017-11-17T03:32:30.572Z,65.30
2017-11-17T03:34:58.894Z,60.70
2017-11-17T03:37:31.501Z,67.90
2017-11-17T03:40:02.162Z,53.73
2017-11-17T03:42:34.411Z,56.27
2017-11-17T03:45:02.017Z,58.43
2017-11-17T03:47:32.747Z,47.23
2017-11-17T03:50:07.282Z,53.87
2017-11-17T03:55:21.044Z,55.47
2017-11-17T03:57:52.690Z,62.70
2017-11-17T04:00:23.921Z,59.50
2017-11-17T04:02:54.546Z,62.67
2017-11-17T04:05:33.004Z,55.20
2017-11-17T04:08:07.123Z,57.83
2017-11-17T04:13:26.761Z,48.73
2017-11-17T04:15:57.155Z,42.07
2017-11-17T04:21:18.223Z,45.17
2017-11-17T04:24:01.842Z,42.77
2017-11-17T04:26:39.984Z,36.13
2017-11-17T04:34:25.950Z,35.67
2017-11-17T04:36:53.499Z,32.27
2017-11-17T04:39:21.072Z,35.03
2017-11-17T04:41:48.721Z,33.73
2017-11-17T04:44:16.349Z,26.47
2017-11-17T04:46:44.772Z,32.27
2017-11-17T04:49:12.472Z,33.17
2017-11-17T04:51:40.024Z,38.87
2017-11-17T04:54:07.574Z,36.27
2017-11-17T04:56:35.205Z,34.37
2017-11-17T04:59:03.814Z,28.23
2017-11-17T05:01:31.357Z,41.23
2017-11-17T05:03:59.104Z,34.00
2017-11-17T05:06:26.757Z,37.50
2017-11-17T05:08:55.115Z,34.33
2017-11-17T05:11:22.735Z,30.77
2017-11-17T05:13:50.292Z,48.00
2017-11-17T05:16:17.895Z,29.13
2017-11-17T05:18:46.718Z,37.03
2017-11-17T05:21:14.304Z,31.27
2017-11-17T05:23:41.916Z,36.10
2017-11-17T05:26:09.486Z,28.63
2017-11-17T05:28:37.842Z,33.80
2017-11-17T05:31:05.403Z,28.30
2017-11-17T05:33:32.982Z,30.47
2017-11-17T05:36:00.570Z,38.77
2017-11-17T05:38:28.168Z,28.83
2017-11-17T05:40:55.731Z,33.13
2017-11-17T05:43:23.327Z,32.57
2017-11-17T05:45:51.673Z,31.13
2017-11-17T05:48:19.504Z,37.73
2017-11-17T05:50:47.065Z,35.53
2017-11-17T05:53:14.642Z,23.80
2017-11-17T05:55:42.215Z,25.83
2017-11-17T05:58:09.804Z,32.63
2017-11-17T06:00:37.847Z,44.20
2017-11-17T06:03:05.414Z,23.90
2017-11-17T06:05:33.018Z,30.00
2017-11-17T06:08:01.345Z,27.67
2017-11-17T06:10:28.959Z,30.60
2017-11-17T06:12:57.679Z,31.53
2017-11-17T06:15:25.283Z,30.13
2017-11-17T06:17:52.806Z,28.93
2017-11-17T06:20:20.401Z,27.07
2017-11-17T06:22:48.042Z,31.67
2017-11-17T06:25:15.588Z,29.20
2017-11-17T06:27:43.165Z,28.43
2017-11-17T06:30:10.738Z,23.10
2017-11-17T06:32:38.353Z,34.03
2017-11-17T06:35:05.909Z,26.43
2017-11-17T09:06:09.308Z,28.40
2017-11-17T09:08:36.885Z,21.27
2017-11-17T09:11:04.485Z,26.40
2017-11-17T09:13:32.087Z,16.80
2017-11-17T09:15:59.665Z,26.80
2017-11-17T09:18:28.013Z,18.00
2017-11-17T09:20:55.691Z,23.53
2017-11-17T09:23:23.268Z,27.23
2017-11-17T09:25:50.846Z,23.33
2017-11-17T09:28:20.067Z,27.70
2017-11-17T09:30:47.650Z,17.77
2017-11-17T09:33:15.255Z,25.47
2017-11-17T09:35:42.861Z,14.63
2017-11-17T09:38:10.435Z,26.00
2017-11-17T09:40:38.026Z,22.83
2017-11-17T09:43:05.606Z,21.60
2017-11-17T09:45:33.939Z,20.70
2017-11-17T09:48:01.527Z,21.70
2017-11-17T09:50:29.107Z,17.73
2017-11-17T09:52:57.532Z,20.10
2017-11-17T09:55:25.153Z,28.43
2017-11-17T09:57:53.497Z,26.60
2017-11-17T10:00:21.068Z,20.37
2017-11-17T10:02:48.680Z,23.20
2017-11-17T10:05:16.248Z,24.80
2017-11-17T10:07:43.814Z,19.13
2017-11-17T10:10:11.419Z,17.10
2017-11-17T10:12:39.000Z,14.97
2017-11-17T10:15:07.383Z,16.70
2017-11-17T10:17:35.749Z,18.47
2017-11-17T10:20:03.367Z,18.97
2017-11-17T10:22:30.954Z,11.77
2017-11-17T10:24:58.530Z,14.33
2017-11-17T10:27:26.106Z,20.10
2017-11-17T10:29:54.448Z,22.97
2017-11-17T10:32:22.021Z,18.83
2017-11-17T10:34:49.622Z,17.17
2017-11-17T10:37:17.282Z,23.80
2017-11-17T10:39:45.655Z,17.87
2017-11-17T10:42:13.985Z,18.53
2017-11-17T10:44:41.560Z,19.57
2017-11-17T10:47:09.140Z,16.20
2017-11-17T10:49:37.495Z,19.33
2017-11-17T10:52:05.258Z,17.27
2017-11-17T10:54:32.851Z,18.00
2017-11-17T10:57:01.190Z,13.13
2017-11-17T10:59:28.800Z,20.97
2017-11-17T11:01:57.178Z,16.07
2017-11-17T11:04:25.560Z,17.47
2017-11-17T11:06:53.890Z,13.57
2017-11-17T11:09:21.467Z,18.90
2017-11-17T11:11:52.984Z,20.17
2017-11-17T11:14:20.585Z,23.50
2017-11-17T11:16:48.151Z,16.13
2017-11-17T11:19:15.713Z,15.67
2017-11-17T11:21:43.289Z,16.30
2017-11-17T11:24:10.859Z,15.80
2017-11-17T11:26:39.223Z,17.97
2017-11-17T11:29:07.578Z,20.83
2017-11-17T11:31:35.155Z,20.77
2017-11-17T11:34:02.738Z,17.43
2017-11-17T11:36:31.159Z,12.13
2017-11-17T11:38:58.736Z,15.90
2017-11-17T11:41:26.347Z,15.67
2017-11-17T11:43:54.693Z,17.87
2017-11-17T11:46:22.268Z,17.23
2017-11-17T11:48:50.715Z,20.10
2017-11-17T11:51:18.281Z,13.83
2017-11-17T11:53:45.869Z,14.67
2017-11-17T11:56:13.435Z,10.03
2017-11-17T11:58:41.800Z,15.27
2017-11-17T12:01:09.443Z,21.53
2017-11-17T12:03:37.031Z,15.00
2017-11-17T12:06:04.694Z,18.37
2017-11-17T12:08:32.276Z,19.60
2017-11-17T12:10:59.891Z,27.53
2017-11-17T12:13:29.020Z,26.23
2017-11-17T12:15:58.619Z,34.20
2017-11-17T12:18:26.310Z,17.33
2017-11-17T12:20:58.224Z,26.37
2017-11-17T12:36:26.612Z,12.30
2017-11-17T12:38:58.488Z,30.77
2017-11-17T12:41:33.233Z,27.43
2017-11-17T12:44:00.809Z,12.37
2017-11-17T12:46:28.404Z,14.37
2017-11-17T12:48:55.973Z,9.70
2017-11-17T12:51:23.594Z,12.23
2017-11-17T12:53:51.199Z,17.50
2017-11-17T12:56:18.784Z,10.00
2017-11-17T12:58:47.213Z,10.63
2017-11-17T13:01:18.529Z,20.90
2017-11-17T13:03:46.227Z,9.10
2017-11-17T13:06:13.811Z,10.83
2017-11-17T13:08:41.418Z,7.40
2017-11-17T13:11:09.102Z,9.80
2017-11-17T13:13:36.697Z,11.73
2017-11-17T13:16:04.282Z,8.93
2017-11-17T13:18:32.625Z,10.80
2017-11-17T13:21:00.290Z,21.67
2017-11-17T13:23:33.418Z,17.37
2017-11-17T13:26:01.116Z,30.40
2017-11-17T13:28:28.684Z,15.03
2017-11-17T13:30:56.302Z,8.63
2017-11-17T13:33:24.653Z,16.43
2017-11-17T13:35:52.239Z,7.23
2017-11-17T13:38:20.567Z,9.90
2017-11-17T13:40:48.161Z,6.40
2017-11-17T13:43:15.736Z,14.90
2017-11-17T13:45:43.356Z,11.57
2017-11-17T13:48:10.927Z,14.57
2017-11-17T13:50:38.683Z,11.17
2017-11-17T13:53:06.261Z,9.07
2017-11-17T13:55:33.846Z,14.00
2017-11-17T13:58:01.734Z,19.20
2017-11-17T14:00:29.336Z,8.57
2017-11-17T14:02:56.930Z,11.53
2017-11-17T14:05:24.528Z,13.67
2017-11-17T14:07:52.184Z,15.70
2017-11-17T14:10:20.516Z,8.70
2017-11-17T14:12:48.086Z,17.13
2017-11-17T14:15:21.891Z,15.63
2017-11-17T14:17:49.617Z,8.13
2017-11-17T14:20:17.224Z,12.77
2017-11-17T14:22:44.818Z,13.73
2017-11-17T14:25:17.753Z,12.80
2017-11-17T14:27:46.799Z,41.00
2017-11-17T14:30:15.736Z,43.43
2017-11-17T14:32:44.693Z,21.37
2017-11-17T14:35:15.410Z,55.77
2017-11-17T14:37:45.270Z,42.93
2017-11-17T14:40:12.852Z,26.20
2017-11-17T14:42:40.463Z,16.07
2017-11-17T14:45:08.155Z,16.73
2017-11-17T14:47:35.749Z,19.50
2017-11-17T14:50:03.440Z,10.33
2017-11-17T14:52:31.875Z,117.83
2017-11-17T14:54:59.460Z,59.63
2017-11-17T14:57:31.339Z,29.90
2017-11-17T14:59:59.242Z,26.67
2017-11-17T15:02:26.848Z,11.77
2017-11-17T15:04:54.410Z,6.50
2017-11-17T15:07:22.024Z,11.60
2017-11-17T15:09:54.432Z,4.93
2017-11-17T15:12:22.060Z,8.07
2017-11-17T15:14:49.615Z,8.83
2017-11-17T15:17:17.187Z,14.83
2017-11-17T15:19:44.777Z,7.10
2017-11-17T15:22:12.458Z,9.07
2017-11-17T15:24:40.056Z,18.40
2017-11-17T15:27:10.765Z,10.83
2017-11-17T15:29:38.349Z,21.77
2017-11-17T15:32:05.944Z,19.50
2017-11-17T15:34:33.548Z,18.60
2017-11-17T15:37:01.919Z,15.27
2017-11-17T15:39:29.504Z,18.93
2017-11-17T15:41:57.834Z,11.03
2017-11-17T15:44:25.451Z,13.03
2017-11-17T15:46:53.050Z,10.67
2017-11-17T15:49:20.611Z,12.27
2017-11-17T15:51:48.220Z,14.13
2017-11-17T15:54:16.683Z,13.90
2017-11-17T15:56:44.279Z,10.73
2017-11-17T15:59:11.849Z,11.30
2017-11-17T16:01:39.473Z,14.47
2017-11-17T16:04:07.057Z,10.33
2017-11-17T16:06:34.644Z,18.63
2017-11-17T16:09:02.253Z,14.40
2017-11-17T16:11:29.830Z,14.40
2017-11-17T16:13:58.211Z,11.47
2017-11-17T16:16:26.643Z,13.80
2017-11-17T16:18:54.252Z,12.67
2017-11-17T16:21:22.609Z,17.50
2017-11-17T16:23:50.197Z,16.47
2017-11-17T16:26:18.552Z,22.07
2017-11-17T16:28:46.248Z,20.73
2017-11-17T16:31:13.820Z,12.57
2017-11-17T16:33:41.446Z,13.77
2017-11-17T16:36:09.108Z,18.57
2017-11-17T16:38:37.480Z,19.13
2017-11-17T16:41:05.072Z,9.80
2017-11-17T16:43:32.842Z,12.63
2017-11-17T16:46:00.426Z,16.40
2017-11-17T16:48:28.800Z,18.63
2017-11-17T16:50:56.561Z,19.53
2017-11-17T16:53:24.158Z,18.97
2017-11-17T16:55:51.727Z,22.33
2017-11-17T16:58:19.337Z,16.30
2017-11-17T17:00:46.947Z,15.97
2017-11-17T17:03:14.549Z,14.73
2017-11-17T17:05:42.902Z,15.93
2017-11-17T17:08:10.525Z,22.50
2017-11-17T17:10:38.084Z,16.43
2017-11-17T17:13:05.708Z,17.93
2017-11-17T17:15:34.103Z,12.90
2017-11-17T17:18:01.688Z,18.60
2017-11-17T17:20:29.276Z,19.57
2017-11-17T17:22:56.844Z,30.87
2017-11-17T17:25:24.445Z,32.03
2017-11-17T17:27:52.032Z,20.30
2017-11-17T17:30:19.612Z,16.13
2017-11-17T17:32:47.219Z,17.30
2017-11-17T17:35:15.614Z,28.30
2017-11-17T17:37:43.227Z,15.73
2017-11-17T17:40:10.791Z,17.90
2017-11-17T17:42:38.352Z,11.00
2017-11-17T17:45:06.269Z,13.30
2017-11-17T17:47:33.883Z,15.93
2017-11-17T17:50:01.448Z,19.57
2017-11-17T17:52:29.069Z,15.47
2017-11-17T17:54:56.658Z,14.07
2017-11-17T17:57:24.261Z,18.70
2017-11-17T17:59:51.937Z,16.57
2017-11-17T18:02:19.476Z,23.37
2017-11-17T18:04:47.840Z,23.20
2017-11-17T18:07:15.802Z,17.30
2017-11-17T18:09:43.410Z,24.60
2017-11-17T18:12:11.009Z,19.10
2017-11-17T18:14:38.595Z,24.97
2017-11-17T18:17:06.179Z,23.33
2017-11-17T18:19:33.803Z,25.30
2017-11-17T18:22:01.410Z,24.53
2017-11-17T18:24:29.758Z,22.67
2017-11-17T18:26:57.441Z,22.90
2017-11-17T18:29:24.942Z,20.70
2017-11-17T18:31:52.626Z,26.00
2017-11-17T18:34:20.209Z,30.97
2017-11-17T18:36:47.804Z,29.90
2017-11-17T18:39:15.493Z,17.80
2017-11-17T18:41:43.497Z,25.20
2017-11-17T18:44:12.662Z,25.83
2017-11-17T18:46:40.294Z,21.23
2017-11-17T18:49:07.892Z,23.27
2017-11-17T18:51:36.193Z,34.83
2017-11-17T18:54:04.595Z,19.70
2017-11-17T18:56:32.201Z,21.13
2017-11-17T18:58:59.931Z,22.47
2017-11-17T19:01:28.352Z,27.33
2017-11-17T19:03:55.937Z,29.13
2017-11-17T19:06:23.499Z,23.33
2017-11-17T19:08:51.157Z,29.70
2017-11-17T19:11:18.776Z,22.40
2017-11-17T19:13:46.438Z,27.07
2017-11-17T19:16:14.027Z,28.03
2017-11-17T19:18:41.630Z,24.97
2017-11-17T19:21:10.085Z,38.30
2017-11-17T19:23:37.692Z,26.87
2017-11-17T19:26:05.299Z,27.53
2017-11-17T19:28:32.895Z,21.40
2017-11-17T19:31:01.263Z,23.83
2017-11-17T19:33:28.855Z,18.47
2017-11-17T19:35:56.681Z,20.43
2017-11-17T19:38:24.308Z,27.10
2017-11-17T19:40:51.990Z,24.93
2017-11-17T19:43:19.636Z,22.63
2017-11-17T19:45:47.343Z,20.30
2017-11-17T19:48:15.746Z,30.67
2017-11-17T19:50:44.174Z,26.17
2017-11-17T19:53:11.849Z,22.33
2017-11-17T19:55:39.435Z,22.77
2017-11-17T19:58:07.866Z,28.73
2017-11-17T20:00:35.559Z,18.90
2017-11-17T20:03:03.201Z,28.00
2017-11-17T20:05:30.800Z,21.30
2017-11-17T20:07:58.515Z,27.93
2017-11-17T20:10:26.755Z,23.10
2017-11-17T20:12:54.425Z,30.37
2017-11-17T20:15:22.033Z,31.00
2017-11-17T20:17:49.712Z,31.50
2017-11-17T20:20:17.320Z,22.50
2017-11-17T20:22:44.994Z,30.50
2017-11-17T20:25:12.706Z,25.27
2017-11-17T20:27:41.140Z,27.20
2017-11-17T20:30:08.802Z,25.50
2017-11-17T20:32:36.403Z,25.40
2017-11-17T20:35:04.039Z,24.80
2017-11-17T20:37:31.624Z,23.87
2017-11-17T20:39:59.295Z,26.13
2017-11-17T20:42:26.880Z,17.43
2017-11-17T20:44:55.329Z,28.33
2017-11-17T20:47:22.988Z,23.73
2017-11-17T20:49:50.563Z,24.93
2017-11-17T20:52:18.203Z,25.80
2017-11-17T20:54:45.849Z,24.53
2017-11-17T20:57:13.705Z,23.63
2017-11-17T20:59:41.321Z,24.20
2017-11-17T21:02:09.675Z,30.43
2017-11-17T21:04:37.375Z,30.17
2017-11-17T21:07:05.733Z,26.53
2017-11-17T21:09:36.740Z,36.17
2017-11-17T21:12:04.352Z,21.47
2017-11-17T21:14:32.787Z,23.03
2017-11-17T21:17:03.624Z,29.93
2017-11-17T21:19:31.210Z,25.57
2017-11-17T21:21:58.783Z,30.80
2017-11-17T21:24:26.532Z,22.43
2017-11-17T21:26:56.265Z,21.23
2017-11-17T21:29:24.191Z,22.03
2017-11-17T21:31:51.892Z,28.10
2017-11-17T21:34:19.481Z,22.63
2017-11-17T21:36:47.121Z,22.27
2017-11-17T21:39:16.332Z,17.83
2017-11-17T21:41:44.013Z,25.40
2017-11-17T21:44:11.671Z,19.17
2017-11-17T21:46:40.074Z,31.13
2017-11-17T21:49:07.685Z,34.67
2017-11-17T21:51:35.615Z,29.10
2017-11-17T21:54:03.222Z,25.13
2017-11-17T21:56:30.824Z,25.73
2017-11-17T21:58:58.426Z,21.20
2017-11-17T22:01:29.122Z,26.93
2017-11-17T22:03:58.012Z,38.40
2017-11-17T22:06:26.617Z,26.23
2017-11-17T22:08:54.221Z,25.07
2017-11-17T22:11:22.599Z,25.83
2017-11-17T22:13:50.220Z,24.50
2017-11-17T22:16:17.773Z,26.13
2017-11-17T22:18:45.478Z,21.90
2017-11-17T22:21:13.128Z,21.47
2017-11-17T22:23:40.731Z,24.33
2017-11-17T22:26:09.142Z,22.87
2017-11-17T22:28:36.696Z,32.50
2017-11-17T22:31:04.373Z,27.80
2017-11-17T22:33:32.061Z,23.47
2017-11-17T22:36:00.450Z,31.37
2017-11-17T22:38:28.041Z,30.80
2017-11-17T22:40:55.616Z,26.00
2017-11-17T22:43:23.241Z,24.47
2017-11-17T22:45:51.602Z,25.07
2017-11-17T22:48:19.331Z,44.33
2017-11-17T22:50:48.001Z,31.87
2017-11-17T22:53:15.730Z,24.10
2017-11-17T22:55:44.325Z,25.10
2017-11-17T22:58:11.935Z,55.70
2017-11-17T23:00:39.519Z,21.03
2017-11-17T23:03:07.128Z,20.50
2017-11-17T23:05:34.745Z,23.57
2017-11-17T23:08:02.402Z,28.77
2017-11-17T23:10:30.010Z,20.33
2017-11-17T23:12:58.337Z,23.03
2017-11-17T23:15:26.042Z,24.27
2017-11-17T23:17:53.627Z,22.30
2017-11-17T23:20:21.951Z,23.87
2017-11-17T23:22:49.537Z,21.50
2017-11-17T23:25:17.886Z,19.63
2017-11-17T23:27:45.446Z,21.00
2017-11-17T23:30:13.040Z,27.07
2017-11-17T23:32:41.403Z,20.10
2017-11-17T23:35:09.005Z,24.87
2017-11-17T23:37:36.599Z,21.27
2017-11-17T23:40:04.160Z,21.80
2017-11-17T23:42:31.728Z,24.83
2017-11-17T23:44:59.308Z,25.00
2017-11-17T23:47:26.889Z,27.70
2017-11-17T23:49:55.289Z,20.10
2017-11-17T23:52:22.941Z,36.60
2017-11-17T23:54:51.242Z,30.80
2017-11-17T23:57:19.598Z,31.37
2017-11-17T23:59:47.192Z,27.20
